Página principal
METAR-TAF:

METAR-TAF

Aeroportos :

Guilin, China

Aeroporto Internacional de Guilin Liangjiang

latitude: 25-20N, longitude: 110-18E, altura: 166 m

Observação actual do tempo

O boletim foi feito há 1 hora e 7 minutos, às 11:00 UTC
Vento 6 kt de es-nordeste
Temperatura 14°C
Humidade 41%
Pressão 1019 hPa
Visibilidade: 6000 m
Nuvens dispersasa uma altura de 3600 ft
Encobertoa uma altura de 6600 ft

METAR: ZGKL 121100Z 07003MPS 6000 SCT036 OVC066 14/01 Q1019 NOSIG

Hora: 20:07 (12:07 UTC)

Previsão

O boletim foi feito há 2 horas e 56 minutos, às 09:11 UTC
Previsão válida de 12 às 12 UTC a 13 às 12 UTC
Vento 4 kt de nordeste
Visibilidade: 5000 m
Nuvens dispersasa uma altura de 4000 ft
Encobertoa uma altura de 6000 ft
neblina
Tornando-se
de 12 às 15 UTC a 12 às 16 UTC
Visibilidade: 2500 m
Tornando-se
de 13 às 01 UTC a 13 às 02 UTC
Visibilidade: 6000 m

TAF: ZGKL 120911Z 1212/1312 05002MPS 5000 BR SCT040 OVC060 TX15/1308Z TN10/1222Z BECMG 1215/1216 2500 BECMG 1301/1302 6000

Observações e previsões do tempo de mais de 4000 aeroportos (mensagens METAR e TAF).

As estações disponíveis são os pontos amarelos e vermelhos sobre o mapa.

Mova o rato sobre o mapa para ver o nome da estação.

Depois clique no ponto para visualizar as observações e previsões meteorológicas.

Para alterar o mapa : clique nos botões verdes com uma cruz preta para aumentar o zoom; no botão verde com uma pitada de zoom; ou nas setas verdes para mapas adjacentes.


METAR-TAF: